sensor_id;sensor_type;location;lat;lon;timestamp;temperature;humidity
17134;DHT22;8682;52.120;5.252;2022-09-09T00:00:15;15.40;99.90
17134;DHT22;8682;52.120;5.252;2022-09-09T00:02:48;15.40;99.90
17134;DHT22;8682;52.120;5.252;2022-09-09T00:05:22;15.50;99.90
17134;DHT22;8682;52.120;5.252;2022-09-09T00:07:55;15.50;99.90
17134;DHT22;8682;52.120;5.252;2022-09-09T00:10:29;15.50;99.90
17134;DHT22;8682;52.120;5.252;2022-09-09T00:13:05;15.50;99.90
17134;DHT22;8682;52.120;5.252;2022-09-09T00:15:40;15.40;99.90
17134;DHT22;8682;52.120;5.252;2022-09-09T00:18:14;15.40;99.90
17134;DHT22;8682;52.120;5.252;2022-09-09T00:20:46;15.40;99.90
17134;DHT22;8682;52.120;5.252;2022-09-09T00:23:23;15.40;99.90
17134;DHT22;8682;52.120;5.252;2022-09-09T00:25:59;15.40;99.90
17134;DHT22;8682;52.120;5.252;2022-09-09T00:28:30;15.40;99.90
17134;DHT22;8682;52.120;5.252;2022-09-09T00:31:07;15.30;99.90
17134;DHT22;8682;52.120;5.252;2022-09-09T00:33:38;15.40;99.90
17134;DHT22;8682;52.120;5.252;2022-09-09T00:36:12;15.40;99.90
17134;DHT22;8682;52.120;5.252;2022-09-09T00:38:43;15.30;99.90
17134;DHT22;8682;52.120;5.252;2022-09-09T00:41:17;15.30;99.90
17134;DHT22;8682;52.120;5.252;2022-09-09T00:43:53;15.20;99.90
17134;DHT22;8682;52.120;5.252;2022-09-09T00:46:40;15.20;99.90
17134;DHT22;8682;52.120;5.252;2022-09-09T00:49:15;15.10;99.90
17134;DHT22;8682;52.120;5.252;2022-09-09T00:51:54;15.10;99.90
17134;DHT22;8682;52.120;5.252;2022-09-09T00:54:33;15.10;99.90
17134;DHT22;8682;52.120;5.252;2022-09-09T00:57:13;15.00;99.90
17134;DHT22;8682;52.120;5.252;2022-09-09T00:59:47;15.00;99.90
17134;DHT22;8682;52.120;5.252;2022-09-09T01:02:26;15.00;99.90
17134;DHT22;8682;52.120;5.252;2022-09-09T01:04:54;14.90;99.90
17134;DHT22;8682;52.120;5.252;2022-09-09T01:07:24;14.90;99.90
17134;DHT22;8682;52.120;5.252;2022-09-09T01:09:55;14.80;99.90
17134;DHT22;8682;52.120;5.252;2022-09-09T01:12:34;14.80;99.90
17134;DHT22;8682;52.120;5.252;2022-09-09T01:15:09;14.80;99.90
17134;DHT22;8682;52.120;5.252;2022-09-09T01:17:46;14.70;99.90
17134;DHT22;8682;52.120;5.252;2022-09-09T01:20:19;14.70;99.90
17134;DHT22;8682;52.120;5.252;2022-09-09T01:22:57;14.60;99.90
17134;DHT22;8682;52.120;5.252;2022-09-09T01:28:49;14.60;99.90
17134;DHT22;8682;52.120;5.252;2022-09-09T01:31:20;14.70;99.90
17134;DHT22;8682;52.120;5.252;2022-09-09T01:33:47;14.70;99.90
17134;DHT22;8682;52.120;5.252;2022-09-09T01:36:20;14.60;99.90
17134;DHT22;8682;52.120;5.252;2022-09-09T01:38:48;14.60;99.90
17134;DHT22;8682;52.120;5.252;2022-09-09T01:41:16;14.60;99.90
17134;DHT22;8682;52.120;5.252;2022-09-09T01:43:43;14.60;99.90
17134;DHT22;8682;52.120;5.252;2022-09-09T01:46:11;14.60;99.90
17134;DHT22;8682;52.120;5.252;2022-09-09T01:48:39;14.60;99.90
17134;DHT22;8682;52.120;5.252;2022-09-09T01:51:07;14.50;99.90
17134;DHT22;8682;52.120;5.252;2022-09-09T01:53:34;14.50;99.90
17134;DHT22;8682;52.120;5.252;2022-09-09T01:56:10;14.50;99.90
17134;DHT22;8682;52.120;5.252;2022-09-09T01:58:49;14.50;99.90
17134;DHT22;8682;52.120;5.252;2022-09-09T02:01:27;14.40;99.90
17134;DHT22;8682;52.120;5.252;2022-09-09T02:03:57;14.40;99.90
17134;DHT22;8682;52.120;5.252;2022-09-09T02:06:30;14.40;99.90
17134;DHT22;8682;52.120;5.252;2022-09-09T02:09:00;14.40;99.90
17134;DHT22;8682;52.120;5.252;2022-09-09T02:11:29;14.30;99.90
17134;DHT22;8682;52.120;5.252;2022-09-09T02:14:01;14.30;99.90
17134;DHT22;8682;52.120;5.252;2022-09-09T02:16:32;14.30;99.90
17134;DHT22;8682;52.120;5.252;2022-09-09T02:19:04;14.40;99.90
17134;DHT22;8682;52.120;5.252;2022-09-09T02:21:33;14.30;99.90
17134;DHT22;8682;52.120;5.252;2022-09-09T02:24:04;14.30;99.90
17134;DHT22;8682;52.120;5.252;2022-09-09T02:26:34;14.20;99.90
17134;DHT22;8682;52.120;5.252;2022-09-09T02:29:08;14.30;99.90
17134;DHT22;8682;52.120;5.252;2022-09-09T02:31:37;14.30;99.90
17134;DHT22;8682;52.120;5.252;2022-09-09T02:34:05;14.30;99.90
17134;DHT22;8682;52.120;5.252;2022-09-09T02:36:37;14.30;99.90
17134;DHT22;8682;52.120;5.252;2022-09-09T02:39:06;14.30;99.90
17134;DHT22;8682;52.120;5.252;2022-09-09T02:41:36;14.30;99.90
17134;DHT22;8682;52.120;5.252;2022-09-09T02:44:09;14.30;99.90
17134;DHT22;8682;52.120;5.252;2022-09-09T02:46:50;14.30;99.90
17134;DHT22;8682;52.120;5.252;2022-09-09T02:49:27;14.20;99.90
17134;DHT22;8682;52.120;5.252;2022-09-09T02:52:00;14.20;99.90
17134;DHT22;8682;52.120;5.252;2022-09-09T02:54:28;14.30;99.90
17134;DHT22;8682;52.120;5.252;2022-09-09T02:57:01;14.20;99.90
17134;DHT22;8682;52.120;5.252;2022-09-09T02:59:31;14.20;99.90
17134;DHT22;8682;52.120;5.252;2022-09-09T03:01:59;14.20;99.90
17134;DHT22;8682;52.120;5.252;2022-09-09T03:04:26;14.20;99.90
17134;DHT22;8682;52.120;5.252;2022-09-09T03:06:53;14.20;99.90
17134;DHT22;8682;52.120;5.252;2022-09-09T03:09:20;14.10;99.90
17134;DHT22;8682;52.120;5.252;2022-09-09T03:11:47;14.10;99.90
17134;DHT22;8682;52.120;5.252;2022-09-09T03:14:14;14.10;99.90
17134;DHT22;8682;52.120;5.252;2022-09-09T03:16:43;14.10;99.90
17134;DHT22;8682;52.120;5.252;2022-09-09T03:19:10;14.20;99.90
17134;DHT22;8682;52.120;5.252;2022-09-09T03:21:37;14.10;99.90
17134;DHT22;8682;52.120;5.252;2022-09-09T03:24:04;14.10;99.90
17134;DHT22;8682;52.120;5.252;2022-09-09T03:26:32;14.00;99.90
17134;DHT22;8682;52.120;5.252;2022-09-09T03:28:59;14.00;99.90
17134;DHT22;8682;52.120;5.252;2022-09-09T03:31:26;14.00;99.90
17134;DHT22;8682;52.120;5.252;2022-09-09T03:33:56;14.00;99.90
17134;DHT22;8682;52.120;5.252;2022-09-09T03:36:24;14.00;99.90
17134;DHT22;8682;52.120;5.252;2022-09-09T03:38:51;13.90;99.90
17134;DHT22;8682;52.120;5.252;2022-09-09T03:41:19;14.00;99.90
17134;DHT22;8682;52.120;5.252;2022-09-09T03:43:49;14.00;99.90
17134;DHT22;8682;52.120;5.252;2022-09-09T03:46:16;13.90;99.90
17134;DHT22;8682;52.120;5.252;2022-09-09T03:48:42;13.90;99.90
17134;DHT22;8682;52.120;5.252;2022-09-09T03:51:11;13.90;99.90
17134;DHT22;8682;52.120;5.252;2022-09-09T03:53:38;13.90;99.90
17134;DHT22;8682;52.120;5.252;2022-09-09T03:56:06;13.90;99.90
17134;DHT22;8682;52.120;5.252;2022-09-09T03:58:33;13.80;99.90
17134;DHT22;8682;52.120;5.252;2022-09-09T04:01:02;13.80;99.90
17134;DHT22;8682;52.120;5.252;2022-09-09T04:03:30;13.90;99.90
17134;DHT22;8682;52.120;5.252;2022-09-09T04:05:59;13.80;99.90
17134;DHT22;8682;52.120;5.252;2022-09-09T04:08:29;13.80;99.90
17134;DHT22;8682;52.120;5.252;2022-09-09T04:10:57;13.80;99.90
17134;DHT22;8682;52.120;5.252;2022-09-09T04:13:24;13.70;99.90
17134;DHT22;8682;52.120;5.252;2022-09-09T04:15:52;13.80;99.90
17134;DHT22;8682;52.120;5.252;2022-09-09T04:18:20;13.80;99.90
17134;DHT22;8682;52.120;5.252;2022-09-09T04:20:47;13.80;99.90
17134;DHT22;8682;52.120;5.252;2022-09-09T04:23:15;13.80;99.90
17134;DHT22;8682;52.120;5.252;2022-09-09T04:25:46;13.80;99.90
17134;DHT22;8682;52.120;5.252;2022-09-09T04:28:13;13.80;99.90
17134;DHT22;8682;52.120;5.252;2022-09-09T04:30:40;13.80;99.90
17134;DHT22;8682;52.120;5.252;2022-09-09T04:33:07;13.90;99.90
17134;DHT22;8682;52.120;5.252;2022-09-09T04:35:35;13.90;99.90
17134;DHT22;8682;52.120;5.252;2022-09-09T04:38:02;14.00;99.90
17134;DHT22;8682;52.120;5.252;2022-09-09T04:40:29;14.00;99.90
17134;DHT22;8682;52.120;5.252;2022-09-09T04:42:59;14.10;99.90
17134;DHT22;8682;52.120;5.252;2022-09-09T04:45:26;14.10;99.90
17134;DHT22;8682;52.120;5.252;2022-09-09T04:47:53;14.10;99.90
17134;DHT22;8682;52.120;5.252;2022-09-09T04:50:20;13.90;99.90
17134;DHT22;8682;52.120;5.252;2022-09-09T04:52:47;14.00;99.90
17134;DHT22;8682;52.120;5.252;2022-09-09T04:55:14;14.10;99.90
17134;DHT22;8682;52.120;5.252;2022-09-09T04:57:41;14.10;99.90
17134;DHT22;8682;52.120;5.252;2022-09-09T05:00:10;14.10;99.90
17134;DHT22;8682;52.120;5.252;2022-09-09T05:02:38;14.10;99.90
17134;DHT22;8682;52.120;5.252;2022-09-09T05:05:08;14.20;99.90
17134;DHT22;8682;52.120;5.252;2022-09-09T05:07:36;14.20;99.90
17134;DHT22;8682;52.120;5.252;2022-09-09T05:10:04;14.20;99.90
17134;DHT22;8682;52.120;5.252;2022-09-09T05:12:31;14.30;99.90
17134;DHT22;8682;52.120;5.252;2022-09-09T05:14:58;14.30;99.90
17134;DHT22;8682;52.120;5.252;2022-09-09T05:17:26;14.30;99.90
17134;DHT22;8682;52.120;5.252;2022-09-09T05:19:53;14.30;99.90
17134;DHT22;8682;52.120;5.252;2022-09-09T05:22:20;14.20;99.90
17134;DHT22;8682;52.120;5.252;2022-09-09T05:24:48;14.20;99.90
17134;DHT22;8682;52.120;5.252;2022-09-09T05:27:16;14.20;99.90
17134;DHT22;8682;52.120;5.252;2022-09-09T05:29:43;14.10;99.90
17134;DHT22;8682;52.120;5.252;2022-09-09T05:32:10;14.20;99.90
17134;DHT22;8682;52.120;5.252;2022-09-09T05:34:38;14.10;99.90
17134;DHT22;8682;52.120;5.252;2022-09-09T05:37:05;14.10;99.90
17134;DHT22;8682;52.120;5.252;2022-09-09T05:39:33;14.10;99.90
17134;DHT22;8682;52.120;5.252;2022-09-09T05:42:01;14.10;99.90
17134;DHT22;8682;52.120;5.252;2022-09-09T05:44:30;14.10;99.90
17134;DHT22;8682;52.120;5.252;2022-09-09T05:46:57;14.20;99.90
17134;DHT22;8682;52.120;5.252;2022-09-09T05:49:24;14.20;99.90
17134;DHT22;8682;52.120;5.252;2022-09-09T05:51:52;14.20;99.90
17134;DHT22;8682;52.120;5.252;2022-09-09T05:54:19;14.20;99.90
17134;DHT22;8682;52.120;5.252;2022-09-09T05:56:46;14.20;99.90
17134;DHT22;8682;52.120;5.252;2022-09-09T05:59:15;14.30;99.90
17134;DHT22;8682;52.120;5.252;2022-09-09T06:01:41;14.30;99.90
17134;DHT22;8682;52.120;5.252;2022-09-09T06:04:08;14.40;99.90
17134;DHT22;8682;52.120;5.252;2022-09-09T06:06:36;14.50;99.90
17134;DHT22;8682;52.120;5.252;2022-09-09T06:09:08;14.50;99.90
17134;DHT22;8682;52.120;5.252;2022-09-09T06:11:37;14.60;99.90
17134;DHT22;8682;52.120;5.252;2022-09-09T06:14:05;14.60;99.90
17134;DHT22;8682;52.120;5.252;2022-09-09T06:16:32;14.70;99.90
17134;DHT22;8682;52.120;5.252;2022-09-09T06:18:59;14.90;99.90
17134;DHT22;8682;52.120;5.252;2022-09-09T06:21:29;14.80;99.90
17134;DHT22;8682;52.120;5.252;2022-09-09T06:23:56;14.70;99.90
17134;DHT22;8682;52.120;5.252;2022-09-09T06:26:26;14.70;99.90
17134;DHT22;8682;52.120;5.252;2022-09-09T06:28:54;14.80;99.90
17134;DHT22;8682;52.120;5.252;2022-09-09T06:31:24;15.00;99.90
17134;DHT22;8682;52.120;5.252;2022-09-09T06:33:52;15.20;99.90
17134;DHT22;8682;52.120;5.252;2022-09-09T06:36:22;15.40;99.90
17134;DHT22;8682;52.120;5.252;2022-09-09T06:38:49;15.50;99.90
17134;DHT22;8682;52.120;5.252;2022-09-09T06:41:18;15.60;99.90
17134;DHT22;8682;52.120;5.252;2022-09-09T06:43:47;15.70;99.90
17134;DHT22;8682;52.120;5.252;2022-09-09T06:46:16;15.80;99.90
17134;DHT22;8682;52.120;5.252;2022-09-09T06:48:44;16.00;99.90
17134;DHT22;8682;52.120;5.252;2022-09-09T06:51:13;16.20;99.90
17134;DHT22;8682;52.120;5.252;2022-09-09T06:53:41;16.50;99.90
17134;DHT22;8682;52.120;5.252;2022-09-09T06:56:20;17.00;99.90
17134;DHT22;8682;52.120;5.252;2022-09-09T06:58:50;18.20;99.90
17134;DHT22;8682;52.120;5.252;2022-09-09T07:01:19;19.30;99.90
17134;DHT22;8682;52.120;5.252;2022-09-09T07:03:48;20.30;99.90
17134;DHT22;8682;52.120;5.252;2022-09-09T07:06:17;19.80;99.90
17134;DHT22;8682;52.120;5.252;2022-09-09T07:08:48;19.50;99.90
17134;DHT22;8682;52.120;5.252;2022-09-09T07:11:18;19.20;99.90
17134;DHT22;8682;52.120;5.252;2022-09-09T07:13:46;19.10;99.90
17134;DHT22;8682;52.120;5.252;2022-09-09T07:16:16;19.20;99.90
17134;DHT22;8682;52.120;5.252;2022-09-09T07:18:44;19.10;99.90
17134;DHT22;8682;52.120;5.252;2022-09-09T07:21:13;18.50;99.90
17134;DHT22;8682;52.120;5.252;2022-09-09T07:23:40;18.50;99.90
17134;DHT22;8682;52.120;5.252;2022-09-09T07:26:09;18.60;99.90
17134;DHT22;8682;52.120;5.252;2022-09-09T07:28:36;18.80;99.90
17134;DHT22;8682;52.120;5.252;2022-09-09T07:31:05;18.70;99.90
17134;DHT22;8682;52.120;5.252;2022-09-09T07:33:34;18.60;99.90
17134;DHT22;8682;52.120;5.252;2022-09-09T07:36:07;18.50;99.90
17134;DHT22;8682;52.120;5.252;2022-09-09T07:38:38;18.30;99.90
17134;DHT22;8682;52.120;5.252;2022-09-09T07:41:07;18.20;99.90
17134;DHT22;8682;52.120;5.252;2022-09-09T07:43:38;18.20;99.90
17134;DHT22;8682;52.120;5.252;2022-09-09T07:46:05;18.00;99.90
17134;DHT22;8682;52.120;5.252;2022-09-09T07:48:34;17.70;99.90
17134;DHT22;8682;52.120;5.252;2022-09-09T07:51:06;17.60;99.90
17134;DHT22;8682;52.120;5.252;2022-09-09T07:53:33;17.40;99.90
17134;DHT22;8682;52.120;5.252;2022-09-09T07:56:06;17.40;99.90
17134;DHT22;8682;52.120;5.252;2022-09-09T07:58:35;17.40;99.90
17134;DHT22;8682;52.120;5.252;2022-09-09T08:01:07;17.50;99.90
17134;DHT22;8682;52.120;5.252;2022-09-09T08:03:36;17.60;99.90
17134;DHT22;8682;52.120;5.252;2022-09-09T08:06:04;17.70;99.90
17134;DHT22;8682;52.120;5.252;2022-09-09T08:08:31;17.50;99.90
17134;DHT22;8682;52.120;5.252;2022-09-09T08:11:03;17.50;99.90
17134;DHT22;8682;52.120;5.252;2022-09-09T08:13:30;17.40;99.90
17134;DHT22;8682;52.120;5.252;2022-09-09T08:16:04;17.50;99.90
17134;DHT22;8682;52.120;5.252;2022-09-09T08:18:32;17.50;99.90
17134;DHT22;8682;52.120;5.252;2022-09-09T08:21:07;17.50;99.90
17134;DHT22;8682;52.120;5.252;2022-09-09T08:23:34;17.60;99.90
17134;DHT22;8682;52.120;5.252;2022-09-09T08:26:06;17.60;99.90
17134;DHT22;8682;52.120;5.252;2022-09-09T08:28:34;17.40;99.90
17134;DHT22;8682;52.120;5.252;2022-09-09T08:31:09;17.30;99.90
17134;DHT22;8682;52.120;5.252;2022-09-09T08:33:37;17.30;99.90
17134;DHT22;8682;52.120;5.252;2022-09-09T08:36:08;17.40;99.90
17134;DHT22;8682;52.120;5.252;2022-09-09T08:38:35;17.40;99.90
17134;DHT22;8682;52.120;5.252;2022-09-09T08:44:07;17.80;99.90
17134;DHT22;8682;52.120;5.252;2022-09-09T08:46:44;18.10;99.90
17134;DHT22;8682;52.120;5.252;2022-09-09T08:49:23;18.00;99.90
17134;DHT22;8682;52.120;5.252;2022-09-09T08:51:55;17.90;99.90
17134;DHT22;8682;52.120;5.252;2022-09-09T08:54:23;18.00;99.90
17134;DHT22;8682;52.120;5.252;2022-09-09T08:56:50;17.90;99.90
17134;DHT22;8682;52.120;5.252;2022-09-09T08:59:18;17.70;99.90
17134;DHT22;8682;52.120;5.252;2022-09-09T09:02:00;17.50;99.90
17134;DHT22;8682;52.120;5.252;2022-09-09T09:04:39;17.50;99.90
17134;DHT22;8682;52.120;5.252;2022-09-09T09:07:20;17.40;99.90
17134;DHT22;8682;52.120;5.252;2022-09-09T09:09:57;17.40;99.90
17134;DHT22;8682;52.120;5.252;2022-09-09T09:12:28;17.30;99.90
17134;DHT22;8682;52.120;5.252;2022-09-09T09:14:56;17.30;99.90
17134;DHT22;8682;52.120;5.252;2022-09-09T09:17:26;17.40;99.90
17134;DHT22;8682;52.120;5.252;2022-09-09T09:19:57;17.40;99.90
17134;DHT22;8682;52.120;5.252;2022-09-09T09:22:30;17.50;99.90
17134;DHT22;8682;52.120;5.252;2022-09-09T09:25:02;17.30;99.90
17134;DHT22;8682;52.120;5.252;2022-09-09T09:27:33;17.30;99.90
17134;DHT22;8682;52.120;5.252;2022-09-09T09:30:02;17.20;99.90
17134;DHT22;8682;52.120;5.252;2022-09-09T09:32:35;17.10;99.90
17134;DHT22;8682;52.120;5.252;2022-09-09T09:35:06;17.20;99.90
17134;DHT22;8682;52.120;5.252;2022-09-09T09:37:37;17.20;99.90
17134;DHT22;8682;52.120;5.252;2022-09-09T09:40:10;17.20;99.90
17134;DHT22;8682;52.120;5.252;2022-09-09T09:42:38;17.30;99.90
17134;DHT22;8682;52.120;5.252;2022-09-09T09:45:16;17.20;99.90
17134;DHT22;8682;52.120;5.252;2022-09-09T09:47:45;17.20;99.90
17134;DHT22;8682;52.120;5.252;2022-09-09T09:50:17;17.10;99.90
17134;DHT22;8682;52.120;5.252;2022-09-09T09:52:53;16.90;99.90
17134;DHT22;8682;52.120;5.252;2022-09-09T09:55:22;16.80;99.90
17134;DHT22;8682;52.120;5.252;2022-09-09T09:57:49;16.70;99.90
17134;DHT22;8682;52.120;5.252;2022-09-09T10:00:19;16.60;99.90
17134;DHT22;8682;52.120;5.252;2022-09-09T10:02:47;16.50;99.90
17134;DHT22;8682;52.120;5.252;2022-09-09T10:05:16;16.50;99.90
17134;DHT22;8682;52.120;5.252;2022-09-09T10:07:45;16.60;99.90
17134;DHT22;8682;52.120;5.252;2022-09-09T10:10:15;16.60;99.90
17134;DHT22;8682;52.120;5.252;2022-09-09T10:12:55;16.50;99.90
17134;DHT22;8682;52.120;5.252;2022-09-09T10:15:31;16.50;99.90
17134;DHT22;8682;52.120;5.252;2022-09-09T10:18:15;16.40;99.90
17134;DHT22;8682;52.120;5.252;2022-09-09T10:20:51;16.50;99.90
17134;DHT22;8682;52.120;5.252;2022-09-09T10:23:32;16.60;99.90
17134;DHT22;8682;52.120;5.252;2022-09-09T10:26:11;16.60;99.90
17134;DHT22;8682;52.120;5.252;2022-09-09T10:28:55;16.50;99.90
17134;DHT22;8682;52.120;5.252;2022-09-09T10:31:30;16.60;99.90
17134;DHT22;8682;52.120;5.252;2022-09-09T10:34:05;16.50;99.90
17134;DHT22;8682;52.120;5.252;2022-09-09T10:36:44;16.50;99.90
17134;DHT22;8682;52.120;5.252;2022-09-09T10:39:26;16.50;99.90
17134;DHT22;8682;52.120;5.252;2022-09-09T10:42:02;16.80;99.90
17134;DHT22;8682;52.120;5.252;2022-09-09T10:44:49;17.10;99.90
17134;DHT22;8682;52.120;5.252;2022-09-09T10:47:54;17.30;99.90
17134;DHT22;8682;52.120;5.252;2022-09-09T10:50:40;17.30;99.90
17134;DHT22;8682;52.120;5.252;2022-09-09T10:53:14;17.30;99.90
17134;DHT22;8682;52.120;5.252;2022-09-09T10:55:52;17.20;99.90
17134;DHT22;8682;52.120;5.252;2022-09-09T10:58:23;17.30;99.90
17134;DHT22;8682;52.120;5.252;2022-09-09T11:00:54;17.50;99.90
17134;DHT22;8682;52.120;5.252;2022-09-09T11:03:24;17.80;99.90
17134;DHT22;8682;52.120;5.252;2022-09-09T11:05:55;18.00;99.90
17134;DHT22;8682;52.120;5.252;2022-09-09T11:08:25;18.10;99.90
17134;DHT22;8682;52.120;5.252;2022-09-09T11:10:59;18.30;99.90
17134;DHT22;8682;52.120;5.252;2022-09-09T11:13:33;18.30;99.90
17134;DHT22;8682;52.120;5.252;2022-09-09T11:16:09;18.20;99.90
17134;DHT22;8682;52.120;5.252;2022-09-09T11:18:41;18.10;99.90
17134;DHT22;8682;52.120;5.252;2022-09-09T11:21:17;18.10;99.90
17134;DHT22;8682;52.120;5.252;2022-09-09T11:23:51;18.00;99.90
17134;DHT22;8682;52.120;5.252;2022-09-09T11:26:28;17.90;99.90
17134;DHT22;8682;52.120;5.252;2022-09-09T11:29:08;17.90;99.90
17134;DHT22;8682;52.120;5.252;2022-09-09T11:31:46;17.90;99.90
17134;DHT22;8682;52.120;5.252;2022-09-09T11:34:27;18.00;99.90
17134;DHT22;8682;52.120;5.252;2022-09-09T11:37:12;18.20;99.90
17134;DHT22;8682;52.120;5.252;2022-09-09T11:39:56;18.10;99.90
17134;DHT22;8682;52.120;5.252;2022-09-09T11:42:28;18.00;99.90
17134;DHT22;8682;52.120;5.252;2022-09-09T11:44:55;18.00;99.90
17134;DHT22;8682;52.120;5.252;2022-09-09T11:47:25;18.00;99.90
17134;DHT22;8682;52.120;5.252;2022-09-09T11:49:55;18.00;99.90
17134;DHT22;8682;52.120;5.252;2022-09-09T11:52:24;17.80;99.90
17134;DHT22;8682;52.120;5.252;2022-09-09T11:54:54;17.60;99.90
17134;DHT22;8682;52.120;5.252;2022-09-09T11:57:26;17.40;99.90
17134;DHT22;8682;52.120;5.252;2022-09-09T11:59:58;17.20;99.90
17134;DHT22;8682;52.120;5.252;2022-09-09T12:02:27;17.00;99.90
17134;DHT22;8682;52.120;5.252;2022-09-09T12:04:59;16.90;99.90
17134;DHT22;8682;52.120;5.252;2022-09-09T12:07:33;17.00;99.90
17134;DHT22;8682;52.120;5.252;2022-09-09T12:10:04;17.10;99.90
17134;DHT22;8682;52.120;5.252;2022-09-09T12:12:34;17.20;99.90
17134;DHT22;8682;52.120;5.252;2022-09-09T12:15:18;17.10;99.90
17134;DHT22;8682;52.120;5.252;2022-09-09T12:17:47;17.10;99.90
17134;DHT22;8682;52.120;5.252;2022-09-09T12:20:17;17.00;99.90
17134;DHT22;8682;52.120;5.252;2022-09-09T12:25:54;17.00;99.90
17134;DHT22;8682;52.120;5.252;2022-09-09T12:28:27;16.80;99.90
17134;DHT22;8682;52.120;5.252;2022-09-09T12:38:32;17.00;99.90
17134;DHT22;8682;52.120;5.252;2022-09-09T12:41:01;17.50;99.90
17134;DHT22;8682;52.120;5.252;2022-09-09T12:43:28;17.40;99.90
17134;DHT22;8682;52.120;5.252;2022-09-09T12:45:57;17.60;99.90
17134;DHT22;8682;52.120;5.252;2022-09-09T12:48:32;17.90;99.90
17134;DHT22;8682;52.120;5.252;2022-09-09T12:51:00;18.10;99.90
17134;DHT22;8682;52.120;5.252;2022-09-09T12:53:31;18.20;99.90
17134;DHT22;8682;52.120;5.252;2022-09-09T12:56:01;18.50;99.90
17134;DHT22;8682;52.120;5.252;2022-09-09T13:00:59;18.70;99.90
17134;DHT22;8682;52.120;5.252;2022-09-09T13:03:27;19.00;99.90
17134;DHT22;8682;52.120;5.252;2022-09-09T13:05:58;19.00;99.90
17134;DHT22;8682;52.120;5.252;2022-09-09T13:08:26;19.00;99.90
17134;DHT22;8682;52.120;5.252;2022-09-09T13:10:57;18.80;99.90
17134;DHT22;8682;52.120;5.252;2022-09-09T13:13:27;18.70;99.90
17134;DHT22;8682;52.120;5.252;2022-09-09T13:15:56;18.60;99.90
17134;DHT22;8682;52.120;5.252;2022-09-09T13:18:27;18.50;99.90
17134;DHT22;8682;52.120;5.252;2022-09-09T13:20:55;18.40;99.90
17134;DHT22;8682;52.120;5.252;2022-09-09T13:23:27;18.30;99.90
17134;DHT22;8682;52.120;5.252;2022-09-09T13:25:55;18.40;99.90
17134;DHT22;8682;52.120;5.252;2022-09-09T13:28:25;18.30;99.90
17134;DHT22;8682;52.120;5.252;2022-09-09T13:33:31;18.10;99.90
17134;DHT22;8682;52.120;5.252;2022-09-09T13:36:02;17.60;99.90
17134;DHT22;8682;52.120;5.252;2022-09-09T13:38:32;17.70;99.90
17134;DHT22;8682;52.120;5.252;2022-09-09T13:41:01;17.70;99.90
17134;DHT22;8682;52.120;5.252;2022-09-09T13:43:31;17.80;99.90
17134;DHT22;8682;52.120;5.252;2022-09-09T13:45:59;17.80;99.90
17134;DHT22;8682;52.120;5.252;2022-09-09T13:48:27;17.90;99.90
17134;DHT22;8682;52.120;5.252;2022-09-09T13:51:01;18.00;99.90
17134;DHT22;8682;52.120;5.252;2022-09-09T13:53:30;17.90;99.90
17134;DHT22;8682;52.120;5.252;2022-09-09T13:55:58;17.90;99.90
17134;DHT22;8682;52.120;5.252;2022-09-09T13:58:27;17.70;99.90
17134;DHT22;8682;52.120;5.252;2022-09-09T14:00:53;17.70;99.90
17134;DHT22;8682;52.120;5.252;2022-09-09T14:03:21;17.60;99.90
17134;DHT22;8682;52.120;5.252;2022-09-09T14:05:48;17.70;99.90
17134;DHT22;8682;52.120;5.252;2022-09-09T14:08:21;17.60;99.90
17134;DHT22;8682;52.120;5.252;2022-09-09T14:10:49;17.70;99.90
17134;DHT22;8682;52.120;5.252;2022-09-09T14:13:16;17.70;99.90
17134;DHT22;8682;52.120;5.252;2022-09-09T14:15:42;17.60;99.90
17134;DHT22;8682;52.120;5.252;2022-09-09T14:18:11;17.50;99.90
17134;DHT22;8682;52.120;5.252;2022-09-09T14:20:38;17.60;99.90
17134;DHT22;8682;52.120;5.252;2022-09-09T14:23:05;17.60;99.90
17134;DHT22;8682;52.120;5.252;2022-09-09T14:25:33;17.60;99.90
17134;DHT22;8682;52.120;5.252;2022-09-09T14:28:01;17.50;99.90
17134;DHT22;8682;52.120;5.252;2022-09-09T14:30:28;17.40;99.90
17134;DHT22;8682;52.120;5.252;2022-09-09T14:32:55;17.40;99.90
17134;DHT22;8682;52.120;5.252;2022-09-09T14:35:22;17.30;99.90
17134;DHT22;8682;52.120;5.252;2022-09-09T14:37:49;17.30;99.90
17134;DHT22;8682;52.120;5.252;2022-09-09T14:40:16;17.20;99.90
17134;DHT22;8682;52.120;5.252;2022-09-09T14:42:44;17.20;99.90
17134;DHT22;8682;52.120;5.252;2022-09-09T14:45:11;17.30;99.90
17134;DHT22;8682;52.120;5.252;2022-09-09T14:47:38;17.30;99.90
17134;DHT22;8682;52.120;5.252;2022-09-09T14:50:06;17.50;99.90
17134;DHT22;8682;52.120;5.252;2022-09-09T14:52:33;17.80;99.90
17134;DHT22;8682;52.120;5.252;2022-09-09T14:55:00;18.10;99.90
17134;DHT22;8682;52.120;5.252;2022-09-09T14:57:27;18.30;99.90
17134;DHT22;8682;52.120;5.252;2022-09-09T14:59:55;18.40;99.90
17134;DHT22;8682;52.120;5.252;2022-09-09T15:02:22;18.60;99.90
17134;DHT22;8682;52.120;5.252;2022-09-09T15:04:49;18.50;99.90
17134;DHT22;8682;52.120;5.252;2022-09-09T15:07:18;18.40;99.90
17134;DHT22;8682;52.120;5.252;2022-09-09T15:09:44;18.30;99.90
17134;DHT22;8682;52.120;5.252;2022-09-09T15:12:13;18.10;99.90
17134;DHT22;8682;52.120;5.252;2022-09-09T15:14:40;18.00;99.90
17134;DHT22;8682;52.120;5.252;2022-09-09T15:17:09;18.00;99.90
17134;DHT22;8682;52.120;5.252;2022-09-09T15:19:36;18.00;99.90
17134;DHT22;8682;52.120;5.252;2022-09-09T15:22:03;18.00;99.90
17134;DHT22;8682;52.120;5.252;2022-09-09T15:24:32;17.90;99.90
17134;DHT22;8682;52.120;5.252;2022-09-09T15:26:59;17.80;99.90
17134;DHT22;8682;52.120;5.252;2022-09-09T15:29:26;17.80;99.90
17134;DHT22;8682;52.120;5.252;2022-09-09T15:31:53;17.70;99.90
17134;DHT22;8682;52.120;5.252;2022-09-09T15:34:22;17.70;99.90
17134;DHT22;8682;52.120;5.252;2022-09-09T15:36:49;17.60;99.90
17134;DHT22;8682;52.120;5.252;2022-09-09T15:39:17;17.50;99.90
17134;DHT22;8682;52.120;5.252;2022-09-09T15:41:45;17.50;99.90
17134;DHT22;8682;52.120;5.252;2022-09-09T15:44:13;17.40;99.90
17134;DHT22;8682;52.120;5.252;2022-09-09T15:46:42;17.40;99.90
17134;DHT22;8682;52.120;5.252;2022-09-09T15:49:10;17.40;99.90
17134;DHT22;8682;52.120;5.252;2022-09-09T15:51:41;17.50;99.90
17134;DHT22;8682;52.120;5.252;2022-09-09T15:54:08;17.60;99.90
17134;DHT22;8682;52.120;5.252;2022-09-09T15:56:36;17.60;99.90
17134;DHT22;8682;52.120;5.252;2022-09-09T15:59:03;17.60;99.90
17134;DHT22;8682;52.120;5.252;2022-09-09T16:01:31;17.60;99.90
17134;DHT22;8682;52.120;5.252;2022-09-09T16:03:59;17.60;99.90
17134;DHT22;8682;52.120;5.252;2022-09-09T16:06:28;17.70;99.90
17134;DHT22;8682;52.120;5.252;2022-09-09T16:08:58;17.70;99.90
17134;DHT22;8682;52.120;5.252;2022-09-09T16:11:28;17.70;99.90
17134;DHT22;8682;52.120;5.252;2022-09-09T16:13:55;17.70;99.90
17134;DHT22;8682;52.120;5.252;2022-09-09T16:16:24;17.70;99.90
17134;DHT22;8682;52.120;5.252;2022-09-09T16:18:53;17.70;99.90
17134;DHT22;8682;52.120;5.252;2022-09-09T16:21:22;17.70;99.90
17134;DHT22;8682;52.120;5.252;2022-09-09T16:23:50;17.70;99.90
17134;DHT22;8682;52.120;5.252;2022-09-09T16:26:19;17.60;99.90